Time;durP1;ratioP1;P1;durP2;ratioP2;P2;SDS_P1;SDS_P2;PMS_P1;PMS_P2;Temp;Humidity;BMP_temperature;BMP_pressure;BME280_temperature;BME280_humidity;BME280_pressure;Samples;Min_cycle;Max_cycle;Signal;HPM_P1;HPM_P2
2022/07/13 00:00:18;;;;;;;1.75;1.63;;;;;;;17.95;64.60;97245.00;5062373;28;20214;-60
2022/07/13 00:02:45;;;;;;;2.33;1.40;;;;;;;17.85;65.02;97251.38;5064861;28;20223;-60
2022/07/13 00:05:11;;;;;;;1.35;1.35;;;;;;;17.94;63.76;97246.00;5065980;28;20198;-58
2022/07/13 00:07:38;;;;;;;1.52;1.42;;;;;;;17.87;65.59;97249.38;5063625;28;20278;-60
2022/07/13 00:10:06;;;;;;;1.27;1.27;;;;;;;17.83;65.89;97242.69;5062511;28;20203;-58
2022/07/13 00:12:32;;;;;;;1.42;1.42;;;;;;;17.73;66.95;97242.06;5067220;28;20214;-58
2022/07/13 00:15:00;;;;;;;2.70;1.58;;;;;;;17.70;67.10;97245.09;5068942;28;20192;-59
2022/07/13 00:17:27;;;;;;;1.55;1.45;;;;;;;17.73;67.00;97236.72;5064520;28;20199;-59
2022/07/13 00:19:53;;;;;;;1.52;1.42;;;;;;;17.64;67.78;97240.41;5051566;28;20661;-57
2022/07/13 00:22:20;;;;;;;1.75;1.65;;;;;;;17.65;67.48;97244.75;5043258;28;20238;-58
2022/07/13 00:24:47;;;;;;;1.70;1.40;;;;;;;17.62;69.02;97234.41;5044615;28;20293;-59
2022/07/13 00:27:13;;;;;;;2.75;1.42;;;;;;;17.55;69.07;97238.75;5043926;28;20207;-60
2022/07/13 00:29:40;;;;;;;1.50;1.40;;;;;;;17.55;69.13;97246.78;5042991;28;20671;-59
2022/07/13 00:32:08;;;;;;;2.03;1.83;;;;;;;17.66;68.14;97245.59;5043325;28;20291;-60
2022/07/13 00:34:35;;;;;;;1.70;1.60;;;;;;;17.69;68.46;97240.75;5045093;28;20203;-59
2022/07/13 00:37:01;;;;;;;1.88;1.70;;;;;;;17.56;69.70;97243.13;5041931;28;20298;-59
2022/07/13 00:39:28;;;;;;;1.73;1.63;;;;;;;17.54;70.08;97245.09;5043179;28;20199;-60
2022/07/13 00:41:55;;;;;;;1.83;1.73;;;;;;;17.48;71.44;97242.28;5043745;28;20227;-58
2022/07/13 00:44:21;;;;;;;1.60;1.50;;;;;;;17.47;72.02;97240.59;5043844;28;20203;-59
2022/07/13 00:46:52;;;;;;;1.80;1.70;;;;;;;17.45;71.98;97238.13;5043744;28;20227;-59
2022/07/13 00:49:21;;;;;;;2.10;1.70;;;;;;;17.37;72.99;97238.13;5043761;28;20204;-59
2022/07/13 00:51:48;;;;;;;2.33;1.60;;;;;;;17.29;74.70;97235.47;5041848;28;20276;-60
2022/07/13 00:54:15;;;;;;;2.08;1.98;;;;;;;17.29;74.69;97238.13;5057560;28;20510;-55
2022/07/13 00:56:42;;;;;;;2.67;1.80;;;;;;;17.40;72.84;97243.97;5055204;28;20199;-53
2022/07/13 00:59:08;;;;;;;2.10;1.90;;;;;;;17.31;73.43;97236.16;5051542;28;20204;-54
2022/07/13 01:01:35;;;;;;;2.13;1.77;;;;;;;17.42;71.58;97238.47;5046343;28;20865;-53
2022/07/13 01:04:01;;;;;;;2.47;2.03;;;;;;;17.32;72.72;97237.81;5046784;28;20214;-53
2022/07/13 01:06:30;;;;;;;2.78;2.08;;;;;;;17.35;71.90;97241.00;5046453;28;20196;-53
2022/07/13 01:08:57;;;;;;;2.22;1.80;;;;;;;17.25;73.37;97232.28;5046136;28;20289;-53
2022/07/13 01:11:23;;;;;;;1.92;1.83;;;;;;;17.24;73.52;97235.16;5046006;28;20539;-54
2022/07/13 01:13:50;;;;;;;1.70;1.60;;;;;;;17.15;74.51;97231.66;5045828;28;20204;-53
2022/07/13 01:16:17;;;;;;;4.50;1.80;;;;;;;17.25;72.31;97232.28;5044594;28;20224;-53
2022/07/13 01:18:43;;;;;;;2.55;2.25;;;;;;;17.22;73.00;97234.47;5045525;28;20561;-54
2022/07/13 01:21:10;;;;;;;2.25;2.13;;;;;;;17.15;73.82;97231.66;5044436;28;20206;-53
2022/07/13 01:23:39;;;;;;;2.00;1.90;;;;;;;17.04;74.74;97231.19;5044254;28;20310;-54
2022/07/13 01:26:07;;;;;;;1.90;1.80;;;;;;;16.99;74.54;97230.84;5044492;28;20214;-54
2022/07/13 01:28:33;;;;;;;2.10;2.00;;;;;;;17.13;72.69;97232.84;5045499;28;20218;-54
2022/07/13 01:31:00;;;;;;;3.25;2.15;;;;;;;17.06;73.46;97232.69;5044511;28;20237;-53
2022/07/13 01:33:26;;;;;;;2.08;1.95;;;;;;;16.97;73.87;97232.88;5045205;28;20198;-54
2022/07/13 01:35:55;;;;;;;4.20;2.13;;;;;;;16.98;73.44;97229.16;5044455;28;20214;-54
2022/07/13 01:38:21;;;;;;;2.20;2.00;;;;;;;16.95;73.64;97227.69;5045374;28;20266;-53
2022/07/13 01:40:51;;;;;;;2.40;2.20;;;;;;;16.96;74.14;97231.19;5044088;28;20218;-53
2022/07/13 01:43:18;;;;;;;2.13;1.92;;;;;;;16.87;74.04;97225.00;5045484;28;20564;-54
2022/07/13 01:45:45;;;;;;;2.00;1.90;;;;;;;16.95;73.17;97229.50;5044435;28;20918;-53
2022/07/13 01:48:12;;;;;;;2.65;1.80;;;;;;;16.84;74.89;97220.84;5044961;28;20223;-53
2022/07/13 01:50:39;;;;;;;3.60;2.33;;;;;;;16.78;74.73;97220.69;5045650;28;20234;-53
2022/07/13 01:53:05;;;;;;;2.38;2.05;;;;;;;16.77;74.35;97222.50;5043845;28;20200;-54
2022/07/13 01:55:32;;;;;;;2.10;2.00;;;;;;;16.70;75.47;97218.84;5043941;28;20246;-54
2022/07/13 01:58:00;;;;;;;2.10;2.00;;;;;;;16.80;73.92;97232.00;5044516;28;20215;-53
2022/07/13 02:00:27;;;;;;;2.33;2.17;;;;;;;16.79;73.61;97230.38;5044704;28;20200;-54
2022/07/13 02:02:54;;;;;;;2.67;2.22;;;;;;;16.67;75.50;97226.34;5045656;28;20235;-54
2022/07/13 02:05:20;;;;;;;2.10;2.00;;;;;;;16.73;74.39;97229.19;5045138;28;20196;-52
2022/07/13 02:07:47;;;;;;;2.30;2.15;;;;;;;16.72;75.27;97224.84;5046372;28;20210;-53
2022/07/13 02:10:14;;;;;;;2.40;2.17;;;;;;;16.63;75.85;97223.19;5044235;28;20645;-54
2022/07/13 02:12:41;;;;;;;2.00;1.90;;;;;;;16.65;74.60;97229.16;5043709;28;20188;-53
2022/07/13 02:15:10;;;;;;;2.55;2.13;;;;;;;16.57;76.25;97223.84;5045000;28;20502;-53
2022/07/13 02:17:37;;;;;;;2.25;2.08;;;;;;;16.48;76.73;97224.78;5044951;28;20223;-53
2022/07/13 02:20:05;;;;;;;2.38;2.28;;;;;;;16.53;76.66;97221.63;5044816;28;20230;-53
2022/07/13 02:22:41;;;;;;;2.45;2.22;;;;;;;16.56;75.57;97216.84;5043778;28;20215;-53
2022/07/13 02:25:09;;;;;;;2.58;2.38;;;;;;;16.50;76.64;97227.31;5044104;28;20199;-54
2022/07/13 02:27:36;;;;;;;2.40;2.30;;;;;;;16.51;76.08;97221.78;5043724;28;20211;-53
2022/07/13 02:30:05;;;;;;;2.45;2.17;;;;;;;16.55;75.57;97219.63;5043836;28;20282;-53
2022/07/13 02:32:33;;;;;;;2.70;2.50;;;;;;;16.41;76.40;97221.13;5042791;28;20938;-53
2022/07/13 02:34:59;;;;;;;2.35;2.13;;;;;;;16.44;76.18;97218.94;5044135;28;20207;-53
2022/07/13 02:37:26;;;;;;;4.13;2.35;;;;;;;16.47;75.26;97217.81;5043733;28;20203;-54
2022/07/13 02:39:55;;;;;;;2.28;2.15;;;;;;;16.36;77.82;97226.13;5043471;28;20228;-53
2022/07/13 02:42:22;;;;;;;2.25;2.15;;;;;;;16.36;77.09;97229.63;5043267;28;20881;-53
2022/07/13 02:44:48;;;;;;;2.28;1.95;;;;;;;16.31;78.95;97218.59;5042924;28;20640;-53
2022/07/13 02:47:15;;;;;;;2.53;2.33;;;;;;;16.32;77.88;97222.97;5043759;28;20228;-53
2022/07/13 02:49:43;;;;;;;2.40;2.20;;;;;;;16.30;78.60;97216.09;5043696;28;20782;-53
2022/07/13 02:52:10;;;;;;;2.10;2.00;;;;;;;16.31;77.42;97212.44;5043321;28;20599;-53
2022/07/13 02:54:36;;;;;;;2.70;1.98;;;;;;;16.28;78.62;97208.28;5044172;28;20236;-53
2022/07/13 02:57:03;;;;;;;3.13;2.25;;;;;;;16.25;78.02;97211.28;5043795;28;20200;-53
2022/07/13 02:59:32;;;;;;;1.88;1.77;;;;;;;16.34;77.76;97209.44;5042724;28;20627;-53
2022/07/13 03:01:58;;;;;;;3.17;2.10;;;;;;;16.32;78.64;97201.59;5045306;28;20206;-53
2022/07/13 03:04:25;;;;;;;4.63;2.28;;;;;;;16.25;78.73;97203.25;5062147;28;20207;-53
2022/07/13 03:06:53;;;;;;;2.03;1.92;;;;;;;16.35;77.97;97206.59;5054484;28;20233;-53
2022/07/13 03:09:20;;;;;;;3.17;2.10;;;;;;;16.35;78.04;97195.94;5048851;28;20204;-53
2022/07/13 03:11:47;;;;;;;2.10;2.00;;;;;;;16.33;78.50;97202.44;5043630;28;20232;-53
2022/07/13 03:14:13;;;;;;;2.13;1.93;;;;;;;16.46;77.03;97201.94;5043376;28;20204;-53
2022/07/13 03:16:40;;;;;;;3.75;2.13;;;;;;;16.43;76.74;97197.78;5043767;28;20297;-53
2022/07/13 03:19:07;;;;;;;1.80;1.70;;;;;;;16.40;78.33;97209.59;5042476;28;20262;-53
2022/07/13 03:21:34;;;;;;;2.30;2.20;;;;;;;16.31;79.45;97196.41;5042712;28;20583;-53
2022/07/13 03:24:01;;;;;;;2.17;2.05;;;;;;;16.27;80.58;97193.25;5041447;28;20597;-53
2022/07/13 03:26:28;;;;;;;2.20;2.10;;;;;;;16.24;80.23;97198.06;5043415;28;20211;-52
2022/07/13 03:28:55;;;;;;;2.20;2.10;;;;;;;16.32;78.74;97195.44;5042737;28;20202;-53
2022/07/13 03:31:22;;;;;;;2.97;1.97;;;;;;;16.29;78.51;97207.28;5042338;28;20242;-53
2022/07/13 03:33:48;;;;;;;2.13;1.98;;;;;;;16.23;80.73;97212.41;5041993;28;20653;-53
2022/07/13 03:36:15;;;;;;;1.98;1.88;;;;;;;16.20;80.76;97204.75;5043024;28;20227;-53
2022/07/13 03:38:42;;;;;;;1.90;1.80;;;;;;;16.16;81.23;97201.56;5041849;28;20196;-52
2022/07/13 03:41:10;;;;;;;2.30;2.10;;;;;;;16.11;80.59;97200.41;5041536;28;20204;-53
2022/07/13 03:43:36;;;;;;;2.20;2.10;;;;;;;16.15;80.27;97199.06;5041096;28;21432;-54
2022/07/13 03:46:03;;;;;;;2.35;2.25;;;;;;;16.21;79.14;97193.06;5041990;28;20258;-53
2022/07/13 03:48:29;;;;;;;2.10;2.00;;;;;;;16.22;78.37;97194.75;5042160;28;20211;-53
2022/07/13 03:50:56;;;;;;;1.98;1.88;;;;;;;16.21;78.61;97187.75;5044125;28;20284;-54
2022/07/13 03:53:23;;;;;;;2.35;2.05;;;;;;;16.13;80.24;97193.06;5045035;28;20200;-53
2022/07/13 03:55:49;;;;;;;2.28;2.10;;;;;;;16.06;82.04;97195.53;5043349;28;20235;-52
2022/07/13 03:58:17;;;;;;;1.83;1.73;;;;;;;16.13;80.82;97201.06;5041715;28;20513;-53
2022/07/13 04:00:44;;;;;;;4.05;3.55;;;;;;;16.08;81.87;97203.41;5044829;28;20200;-53
2022/07/13 04:03:10;;;;;;;3.72;2.70;;;;;;;16.02;81.77;97199.53;5043039;28;20314;-52
2022/07/13 04:05:37;;;;;;;4.97;2.33;;;;;;;16.03;82.05;97203.03;5043002;28;20669;-52
2022/07/13 04:08:04;;;;;;;2.40;2.20;;;;;;;16.06;81.27;97200.03;5041238;28;20238;-52
2022/07/13 04:10:31;;;;;;;2.15;2.05;;;;;;;16.09;82.12;97205.03;5042444;28;20250;-53
2022/07/13 04:12:58;;;;;;;2.80;2.43;;;;;;;16.12;81.36;97194.06;5041467;28;20636;-53
2022/07/13 04:15:26;;;;;;;5.28;4.78;;;;;;;16.08;83.97;97204.25;5042379;28;20215;-53
2022/07/13 04:17:53;;;;;;;2.67;2.57;;;;;;;16.11;84.73;97200.41;5041621;28;20293;-54
2022/07/13 04:20:19;;;;;;;3.07;2.30;;;;;;;16.13;83.61;97201.91;5042629;28;20246;-53
2022/07/13 04:22:46;;;;;;;2.30;2.10;;;;;;;16.27;82.96;97195.06;5041325;28;20219;-53
2022/07/13 04:25:13;;;;;;;2.00;1.90;;;;;;;16.38;83.04;97195.59;5041797;28;20200;-53
2022/07/13 04:27:39;;;;;;;2.97;2.50;;;;;;;16.43;83.79;97193.28;5042026;28;20203;-53
2022/07/13 04:30:07;;;;;;;2.15;1.98;;;;;;;16.52;84.38;97185.25;5041953;28;20215;-53
2022/07/13 04:32:34;;;;;;;2.33;2.22;;;;;;;16.68;82.88;97191.47;5042478;28;20258;-53
2022/07/13 04:35:01;;;;;;;2.47;2.22;;;;;;;16.70;83.39;97181.44;5042557;28;20219;-52
2022/07/13 04:37:28;;;;;;;2.50;2.10;;;;;;;17.08;81.46;97182.56;5046375;28;20222;-53
2022/07/13 04:39:54;;;;;;;2.20;2.00;;;;;;;17.22;81.21;97173.00;5045646;28;20245;-52
2022/07/13 04:42:22;;;;;;;2.58;2.25;;;;;;;17.27;81.61;97176.00;5047425;28;20199;-53
2022/07/13 04:44:48;;;;;;;5.03;3.58;;;;;;;17.65;80.18;97169.88;5045592;28;20331;-55
2022/07/13 04:47:15;;;;;;;3.42;2.97;;;;;;;17.80;78.36;97173.47;5045350;28;20801;-53
2022/07/13 04:49:43;;;;;;;2.88;2.20;;;;;;;18.23;77.83;97171.22;5045630;28;20203;-53
2022/07/13 04:52:10;;;;;;;4.95;2.40;;;;;;;18.66;75.05;97184.00;5046333;28;20236;-52
2022/07/13 04:54:36;;;;;;;2.08;1.80;;;;;;;18.88;74.61;97179.63;5045117;28;20517;-54
2022/07/13 04:57:03;;;;;;;3.38;2.20;;;;;;;18.82;74.53;97181.16;5044524;28;20235;-52
2022/07/13 04:59:30;;;;;;;3.65;2.30;;;;;;;18.92;74.30;97172.03;5044982;28;20207;-53
2022/07/13 05:01:57;;;;;;;2.78;2.45;;;;;;;18.90;74.39;97177.56;5045569;28;20215;-53
2022/07/13 05:04:24;;;;;;;4.00;2.63;;;;;;;19.02;73.71;97178.81;5045377;28;20611;-51
2022/07/13 05:06:52;;;;;;;3.33;2.03;;;;;;;18.82;75.11;97183.84;5045743;28;20204;-52
2022/07/13 05:09:19;;;;;;;2.72;2.53;;;;;;;18.73;75.73;97181.41;5044481;28;20656;-53
2022/07/13 05:11:46;;;;;;;2.30;2.20;;;;;;;18.77;73.49;97194.28;5046753;28;20203;-52
2022/07/13 05:14:12;;;;;;;2.40;2.20;;;;;;;18.83;74.17;97185.50;5052960;28;20192;-52
2022/07/13 05:16:39;;;;;;;3.45;2.55;;;;;;;18.95;74.58;97190.44;5054288;28;20212;-52
2022/07/13 05:19:06;;;;;;;1.95;1.85;;;;;;;19.16;73.71;97194.09;5051737;28;20633;-52
2022/07/13 05:21:33;;;;;;;3.72;2.25;;;;;;;19.45;72.66;97187.09;5046327;28;20219;-52
2022/07/13 05:24:01;;;;;;;3.00;2.10;;;;;;;19.73;70.49;97196.16;5045656;28;20282;-53
2022/07/13 05:26:27;;;;;;;3.58;2.28;;;;;;;19.86;68.81;97193.63;5045552;28;20199;-53
2022/07/13 05:28:54;;;;;;;2.80;2.10;;;;;;;20.13;69.04;97192.09;5046033;28;20231;-52
2022/07/13 05:31:20;;;;;;;3.00;2.50;;;;;;;20.33;67.35;97193.19;5045202;28;20218;-53
2022/07/13 05:33:46;;;;;;;3.42;2.50;;;;;;;20.37;65.52;97189.06;5045498;28;20214;-52
2022/07/13 05:36:13;;;;;;;4.53;2.60;;;;;;;20.55;65.56;97185.94;5045347;28;20288;-54
2022/07/13 05:38:39;;;;;;;4.75;2.50;;;;;;;20.51;66.65;97182.81;5044948;28;20615;-53
2022/07/13 05:41:08;;;;;;;2.97;2.38;;;;;;;20.91;65.51;97181.31;5045437;28;20215;-53
2022/07/13 05:43:35;;;;;;;3.50;2.75;;;;;;;21.00;63.86;97173.94;5044207;28;20231;-52
2022/07/13 05:46:01;;;;;;;3.25;2.30;;;;;;;21.21;63.65;97173.94;5044805;28;20258;-53
2022/07/13 05:48:28;;;;;;;3.55;2.63;;;;;;;21.43;62.92;97180.91;5042789;28;20225;-54
2022/07/13 05:50:54;;;;;;;3.80;2.55;;;;;;;21.43;60.63;97172.84;5044683;28;20592;-54
2022/07/13 05:53:21;;;;;;;2.50;2.30;;;;;;;21.59;61.05;97175.19;5043924;28;20211;-53
2022/07/13 05:55:47;;;;;;;3.13;2.10;;;;;;;21.68;62.44;97173.97;5044668;28;20196;-54
2022/07/13 05:58:15;;;;;;;3.13;2.50;;;;;;;21.99;60.43;97178.94;5044791;28;20222;-54
2022/07/13 06:00:42;;;;;;;3.50;2.50;;;;;;;22.23;59.73;97177.56;5044411;28;20248;-53
2022/07/13 06:03:08;;;;;;;6.28;3.00;;;;;;;22.12;59.27;97181.66;5043299;28;20662;-54
2022/07/13 06:05:35;;;;;;;3.58;2.47;;;;;;;22.29;58.28;97182.13;5044354;28;20241;-53
2022/07/13 06:08:01;;;;;;;3.25;2.17;;;;;;;22.46;58.35;97178.00;5044116;28;20234;-54
2022/07/13 06:10:28;;;;;;;3.05;2.20;;;;;;;22.51;57.10;97172.84;5043813;28;20238;-53
2022/07/13 06:12:55;;;;;;;4.00;2.30;;;;;;;22.58;57.43;97171.00;5043343;28;20207;-52
2022/07/13 06:15:23;;;;;;;5.28;2.22;;;;;;;22.85;57.41;97165.69;5045107;28;20199;-54
2022/07/13 06:17:49;;;;;;;3.97;2.50;;;;;;;23.15;53.91;97161.50;5043626;28;20208;-54
2022/07/13 06:20:16;;;;;;;2.40;2.20;;;;;;;23.23;54.25;97167.53;5044285;28;20592;-52
2022/07/13 06:22:43;;;;;;;2.47;2.28;;;;;;;23.40;52.71;97170.59;5044455;28;20207;-53
2022/07/13 06:25:10;;;;;;;4.13;2.15;;;;;;;23.29;56.22;97174.78;5043475;28;20729;-53
2022/07/13 06:27:36;;;;;;;6.10;1.90;;;;;;;23.49;56.13;97168.56;5043948;28;20304;-54
2022/07/13 06:30:05;;;;;;;4.22;2.08;;;;;;;23.52;52.76;97163.56;5044165;28;20208;-53
2022/07/13 06:32:32;;;;;;;3.17;2.20;;;;;;;23.69;53.41;97148.53;5043577;28;20199;-54
2022/07/13 06:34:59;;;;;;;4.80;2.15;;;;;;;23.71;51.89;97151.00;5043446;28;20208;-54
2022/07/13 06:37:26;;;;;;;3.08;2.03;;;;;;;24.00;52.01;97155.06;5042535;28;20267;-53
2022/07/13 06:39:52;;;;;;;3.30;1.65;;;;;;;24.20;51.35;97161.22;5043504;28;20208;-55
2022/07/13 06:42:19;;;;;;;2.40;1.88;;;;;;;24.36;49.13;97168.84;5043513;28;20242;-53
2022/07/13 06:44:46;;;;;;;4.22;2.42;;;;;;;24.66;50.47;97150.94;5041572;28;20251;-54
2022/07/13 06:47:12;;;;;;;4.32;2.17;;;;;;;24.93;49.37;97158.91;5044083;28;20247;-53
2022/07/13 06:49:40;;;;;;;2.63;1.73;;;;;;;25.12;46.02;97166.00;5043669;28;20230;-54
2022/07/13 06:52:06;;;;;;;2.50;1.70;;;;;;;25.06;45.88;97161.50;5043015;28;20235;-54
2022/07/13 06:54:33;;;;;;;2.08;1.83;;;;;;;24.95;47.57;97173.03;5042872;28;20207;-53
2022/07/13 06:56:59;;;;;;;2.63;1.98;;;;;;;25.13;48.95;97178.50;5043570;28;20209;-52
2022/07/13 06:59:26;;;;;;;3.13;1.90;;;;;;;25.14;47.98;97178.31;5042786;28;20530;-54
2022/07/13 07:01:53;;;;;;;3.42;2.17;;;;;;;25.33;47.39;97179.16;5043578;28;20227;-53
2022/07/13 07:04:19;;;;;;;2.45;1.73;;;;;;;25.50;46.58;97176.72;5042971;28;20219;-54
2022/07/13 07:06:47;;;;;;;2.10;1.80;;;;;;;25.54;44.83;97176.06;5043221;28;20584;-53
2022/07/13 07:09:14;;;;;;;3.33;1.60;;;;;;;25.69;45.03;97178.41;5043039;28;20234;-52
2022/07/13 07:11:40;;;;;;;4.95;2.33;;;;;;;25.52;45.93;97177.34;5043421;28;20207;-53
2022/07/13 07:14:08;;;;;;;4.60;1.88;;;;;;;25.75;44.59;97181.03;5044028;28;20243;-54
2022/07/13 07:16:35;;;;;;;5.35;1.63;;;;;;;25.66;44.21;97173.44;5042977;28;20282;-54
2022/07/13 07:19:01;;;;;;;2.40;1.60;;;;;;;25.56;45.76;97178.53;5043874;28;20606;-53
2022/07/13 07:21:28;;;;;;;3.00;1.95;;;;;;;25.71;44.76;97179.84;5043174;28;20199;-52
2022/07/13 07:23:56;;;;;;;4.32;1.95;;;;;;;25.71;44.14;97174.44;5042987;28;20578;-51
2022/07/13 07:26:23;;;;;;;3.15;2.10;;;;;;;26.04;44.22;97170.50;5043932;28;20194;-52
2022/07/13 07:28:49;;;;;;;3.30;2.10;;;;;;;25.90;44.60;97174.44;5043156;28;20211;-54
2022/07/13 07:31:16;;;;;;;3.80;1.88;;;;;;;26.09;44.91;97170.63;5044405;28;20211;-53
2022/07/13 07:33:42;;;;;;;2.38;2.15;;;;;;;26.28;43.88;97174.19;5042541;28;20240;-53
2022/07/13 07:36:09;;;;;;;2.03;1.83;;;;;;;26.57;44.17;97185.03;5043181;28;21058;-53
2022/07/13 07:38:36;;;;;;;2.90;1.90;;;;;;;26.25;43.91;97183.63;5043395;28;20703;-54
2022/07/13 07:41:04;;;;;;;2.63;1.98;;;;;;;26.54;44.38;97171.91;5043904;28;20210;-54
2022/07/13 07:43:30;;;;;;;3.55;2.00;;;;;;;26.78;42.43;97178.25;5044747;28;20211;-52
2022/07/13 07:45:57;;;;;;;5.28;1.85;;;;;;;27.12;43.09;97166.66;5041619;28;20605;-54
2022/07/13 07:48:25;;;;;;;2.90;2.15;;;;;;;26.89;43.52;97166.63;5045992;28;20635;-53
2022/07/13 07:50:51;;;;;;;5.25;2.05;;;;;;;27.02;42.95;97166.41;5044271;28;20237;-53
2022/07/13 07:53:18;;;;;;;5.88;2.15;;;;;;;27.08;41.39;97162.75;5044617;28;20203;-53
2022/07/13 07:55:44;;;;;;;2.58;2.00;;;;;;;27.37;42.28;97177.31;5043892;28;20218;-53
2022/07/13 07:58:13;;;;;;;1.98;1.80;;;;;;;27.51;42.56;97173.31;5044713;28;20220;-54
2022/07/13 08:00:40;;;;;;;3.25;1.77;;;;;;;27.49;43.29;97175.44;5044442;28;20271;-53
2022/07/13 08:03:07;;;;;;;4.93;1.75;;;;;;;27.45;42.10;97171.56;5045186;28;20208;-53
2022/07/13 08:05:33;;;;;;;2.75;1.38;;;;;;;27.63;42.54;97171.41;5047441;28;20251;-53
2022/07/13 08:08:00;;;;;;;3.08;1.67;;;;;;;27.83;41.95;97175.66;5047961;28;20266;-53
2022/07/13 08:10:28;;;;;;;2.33;2.13;;;;;;;27.38;41.67;97168.09;5049395;28;20207;-53
2022/07/13 08:12:55;;;;;;;3.15;1.73;;;;;;;27.49;43.32;97170.00;5061506;28;20204;-53
2022/07/13 08:15:23;;;;;;;2.33;1.75;;;;;;;27.34;43.17;97163.38;5068338;28;20226;-53
2022/07/13 08:17:50;;;;;;;4.72;2.15;;;;;;;27.64;42.35;97162.19;5062003;28;20206;-53
2022/07/13 08:20:16;;;;;;;2.15;2.00;;;;;;;27.66;41.58;97162.81;5061205;28;20221;-53
2022/07/13 08:22:43;;;;;;;2.17;1.73;;;;;;;27.59;41.66;97159.38;5062154;28;20218;-52
2022/07/13 08:25:09;;;;;;;3.67;1.80;;;;;;;27.73;43.03;97161.84;5061214;28;20231;-53
2022/07/13 08:27:36;;;;;;;1.70;1.60;;;;;;;27.93;39.91;97162.25;5063610;28;20210;-54
2022/07/13 08:30:03;;;;;;;2.95;1.40;;;;;;;28.07;42.36;97160.97;5065852;28;20214;-54
2022/07/13 08:32:31;;;;;;;1.58;1.48;;;;;;;28.29;40.01;97158.41;5061784;28;20272;-54
2022/07/13 08:40:25;;;;;;;1.88;1.60;;;;;;;28.63;38.52;97171.03;5042596;28;20210;-53
2022/07/13 08:42:52;;;;;;;3.25;1.70;;;;;;;29.00;37.92;97171.44;5042442;28;20545;-53
2022/07/13 08:45:19;;;;;;;1.52;1.42;;;;;;;28.46;38.80;97173.72;5040049;28;20219;-54
2022/07/13 08:47:48;;;;;;;1.75;1.65;;;;;;;28.67;38.37;97169.50;5042763;28;20199;-53
2022/07/13 08:50:15;;;;;;;1.85;1.70;;;;;;;28.58;36.97;97179.94;5041892;28;20219;-53
2022/07/13 08:52:42;;;;;;;2.42;1.75;;;;;;;28.40;39.46;97180.13;5042331;28;20286;-52
2022/07/13 08:55:09;;;;;;;1.98;1.77;;;;;;;28.60;39.30;97174.25;5041512;28;20195;-53
2022/07/13 08:57:37;;;;;;;1.23;1.23;;;;;;;28.81;38.12;97172.72;5042493;28;20224;-55
2022/07/13 09:00:07;;;;;;;1.90;1.52;;;;;;;28.77;38.38;97166.16;5042907;28;20215;-52
2022/07/13 09:02:34;;;;;;;1.70;1.60;;;;;;;28.61;39.28;97179.44;5042407;28;20200;-54
2022/07/13 09:05:04;;;;;;;1.90;1.70;;;;;;;28.90;38.03;97172.09;5041129;28;20282;-54
2022/07/13 09:07:30;;;;;;;1.35;1.25;;;;;;;28.85;38.03;97177.44;5042310;28;20222;-53
2022/07/13 09:09:57;;;;;;;3.58;1.60;;;;;;;28.90;36.45;97172.09;5041849;28;20229;-53
2022/07/13 09:12:25;;;;;;;2.28;1.40;;;;;;;28.83;38.61;97173.34;5042107;28;20219;-53
2022/07/13 09:14:53;;;;;;;3.30;1.58;;;;;;;28.92;40.43;97172.69;5041148;28;20258;-53
2022/07/13 09:17:27;;;;;;;6.03;1.88;;;;;;;29.02;39.75;97170.13;5045243;28;20196;-52
2022/07/13 09:19:54;;;;;;;2.33;1.50;;;;;;;29.08;37.95;97160.97;5057480;28;20226;-54
2022/07/13 09:22:22;;;;;;;1.55;1.42;;;;;;;29.36;37.40;97160.09;5056475;28;20196;-54
2022/07/13 09:24:50;;;;;;;5.22;1.70;;;;;;;29.78;36.83;97156.88;5062835;28;20220;-53
2022/07/13 09:27:17;;;;;;;1.50;1.40;;;;;;;30.05;34.30;97157.78;5062783;28;20276;-53
2022/07/13 09:29:44;;;;;;;1.73;1.63;;;;;;;30.16;34.56;97166.91;5065906;28;20196;-54
2022/07/13 09:32:12;;;;;;;8.57;1.73;;;;;;;30.01;35.27;97167.56;5066720;28;20207;-52
2022/07/13 09:34:47;;;;;;;2.15;1.48;;;;;;;30.18;34.15;97164.78;5069293;28;20268;-53
2022/07/13 09:37:15;;;;;;;1.98;1.52;;;;;;;29.84;34.70;97164.03;5065064;28;20266;-54
2022/07/13 09:40:03;;;;;;;2.97;1.70;;;;;;;29.73;34.09;97173.13;5060729;28;20195;-53
2022/07/13 09:42:31;;;;;;;2.80;1.55;;;;;;;29.95;34.38;97165.84;5061433;28;20243;-52
2022/07/13 09:47:47;;;;;;;1.80;1.67;;;;;;;30.45;33.84;97179.31;5045626;28;20205;-53
2022/07/13 09:50:15;;;;;;;2.65;1.70;;;;;;;30.66;32.24;97174.88;5044880;28;20195;-55
2022/07/13 09:52:43;;;;;;;1.67;1.58;;;;;;;30.64;32.19;97166.97;5045209;28;20524;-54
2022/07/13 09:55:12;;;;;;;1.80;1.70;;;;;;;30.80;31.95;97165.19;5044060;28;20692;-53
2022/07/13 09:57:44;;;;;;;2.10;1.70;;;;;;;30.87;33.22;97168.53;5045490;28;20228;-54
2022/07/13 10:00:14;;;;;;;2.38;1.80;;;;;;;31.01;31.16;97172.53;5053291;28;20226;-52
2022/07/13 10:02:42;;;;;;;1.65;1.55;;;;;;;31.18;31.41;97186.88;5058277;28;20207;-54
2022/07/13 10:05:10;;;;;;;2.60;1.73;;;;;;;31.49;32.25;97175.13;5061156;28;20223;-54
2022/07/13 10:07:36;;;;;;;2.53;1.60;;;;;;;31.65;31.69;97177.97;5063988;28;20204;-52
2022/07/13 10:10:06;;;;;;;3.53;1.50;;;;;;;31.55;31.35;97174.09;5062677;28;20203;-52
2022/07/13 10:12:36;;;;;;;3.75;1.80;;;;;;;31.76;32.60;97172.31;5064600;28;20260;-53
2022/07/13 10:15:03;;;;;;;1.70;1.60;;;;;;;31.61;31.25;97166.72;5062378;28;20184;-53
2022/07/13 10:17:29;;;;;;;2.30;1.58;;;;;;;31.40;31.42;97168.47;5063075;28;20214;-53
2022/07/13 10:20:04;;;;;;;1.60;1.50;;;;;;;31.39;29.57;97166.03;5060997;28;20203;-52
2022/07/13 10:22:34;;;;;;;1.67;1.33;;;;;;;31.45;30.84;97165.78;5062280;28;20206;-54
2022/07/13 10:25:02;;;;;;;3.42;1.45;;;;;;;31.16;30.28;97163.66;5063375;28;20218;-53
2022/07/13 10:27:30;;;;;;;2.17;1.40;;;;;;;31.07;31.65;97171.50;5062771;28;20191;-53
2022/07/13 10:29:59;;;;;;;2.25;1.80;;;;;;;31.30;31.74;97165.69;5061976;28;20212;-54
2022/07/13 10:32:27;;;;;;;1.58;1.48;;;;;;;31.36;31.41;97170.09;5055253;28;20227;-52
2022/07/13 10:34:58;;;;;;;2.38;1.65;;;;;;;31.49;30.55;97169.66;5044881;28;20265;-53
2022/07/13 10:37:26;;;;;;;2.53;1.45;;;;;;;31.56;30.84;97173.03;5043658;28;20195;-53
2022/07/13 10:40:17;;;;;;;1.98;1.33;;;;;;;31.88;31.38;97177.56;5044357;28;21401;-54
2022/07/13 10:43:12;;;;;;;1.60;1.50;;;;;;;31.79;31.34;97171.78;5035869;28;20663;-54
2022/07/13 10:45:45;;;;;;;1.50;1.40;;;;;;;31.99;30.09;97169.13;5042895;28;20271;-53
2022/07/13 10:48:42;;;;;;;2.58;1.63;;;;;;;32.00;30.74;97165.31;5043293;28;20183;-54
2022/07/13 10:51:17;;;;;;;1.40;1.30;;;;;;;32.16;31.37;97169.00;5043790;28;20362;-53
2022/07/13 10:54:08;;;;;;;3.13;1.50;;;;;;;32.11;28.99;97170.84;5043505;28;20577;-54
2022/07/13 10:56:34;;;;;;;1.75;1.65;;;;;;;32.36;30.45;97160.00;5044074;28;20188;-54
2022/07/13 10:59:02;;;;;;;2.78;1.48;;;;;;;32.50;30.10;97158.41;5044150;28;20321;-54
2022/07/13 11:01:40;;;;;;;1.42;1.25;;;;;;;32.47;28.26;97148.84;5041924;28;20294;-53
2022/07/13 11:04:08;;;;;;;1.95;1.55;;;;;;;32.65;30.13;97160.41;5043484;28;20417;-53
2022/07/13 11:06:38;;;;;;;1.40;1.30;;;;;;;32.66;27.34;97151.09;5043429;28;20240;-52
2022/07/13 11:09:13;;;;;;;1.35;1.27;;;;;;;32.83;28.00;97147.00;5043798;28;20192;-54
2022/07/13 11:11:47;;;;;;;2.72;1.48;;;;;;;32.83;26.81;97147.00;5043176;28;20298;-54
2022/07/13 11:14:59;;;;;;;1.48;1.38;;;;;;;32.72;27.57;97150.00;5042789;28;20537;-53
2022/07/13 11:17:28;;;;;;;1.45;1.10;;;;;;;32.79;28.07;97139.59;5043221;28;20188;-54
2022/07/13 11:20:03;;;;;;;1.83;1.55;;;;;;;32.98;28.39;97141.53;5042796;28;20529;-54
2022/07/13 11:25:13;;;;;;;2.45;1.50;;;;;;;32.93;29.72;97141.53;5042436;28;20527;-54
2022/07/13 11:25:38;;;;;;;2.38;1.50;;;;;;;32.99;25.68;97132.22;5042214;28;20775;-54
2022/07/13 11:28:15;;;;;;;4.50;1.52;;;;;;;33.00;24.25;97135.78;5043762;28;20283;-55
2022/07/13 11:30:45;;;;;;;2.75;1.40;;;;;;;33.09;26.88;97128.63;5042174;28;20628;-54
2022/07/13 11:33:12;;;;;;;1.20;1.20;;;;;;;33.14;25.67;97125.94;5042300;28;20215;-54
2022/07/13 11:35:39;;;;;;;1.45;1.30;;;;;;;33.31;26.66;97121.00;5042391;28;20291;-54
2022/07/13 11:38:07;;;;;;;1.33;1.20;;;;;;;33.26;25.65;97121.00;5042592;28;20195;-53
2022/07/13 11:40:34;;;;;;;2.85;1.38;;;;;;;33.30;26.93;97124.03;5042735;28;20208;-53
2022/07/13 11:43:01;;;;;;;2.53;1.40;;;;;;;33.08;27.82;97116.06;5042695;28;20228;-53
2022/07/13 11:45:30;;;;;;;1.90;1.58;;;;;;;33.14;26.83;97114.97;5042332;28;20224;-54